sensor_id;sensor_type;location;lat;lon;timestamp;pressure;altitude;pressure_sealevel;temperature;humidity
68197;BME280;55019;49.382;11.358;2022-11-14T00:02:21;96697.44;;;4.93;83.18
68197;BME280;55019;49.382;11.358;2022-11-14T00:04:47;96699.06;;;4.94;82.94
68197;BME280;55019;49.382;11.358;2022-11-14T00:07:13;96700.00;;;4.93;82.90
68197;BME280;55019;49.382;11.358;2022-11-14T00:09:39;96677.25;;;4.99;83.68
68197;BME280;55019;49.382;11.358;2022-11-14T00:12:08;96680.75;;;4.98;82.84
68197;BME280;55019;49.382;11.358;2022-11-14T00:14:34;96685.75;;;5.00;83.29
68197;BME280;55019;49.382;11.358;2022-11-14T00:16:59;96678.81;;;4.91;82.85
68197;BME280;55019;49.382;11.358;2022-11-14T00:19:24;96683.44;;;4.97;83.45
68197;BME280;55019;49.382;11.358;2022-11-14T00:21:50;96670.31;;;4.90;83.68
68197;BME280;55019;49.382;11.358;2022-11-14T00:24:17;96672.88;;;4.90;83.49
68197;BME280;55019;49.382;11.358;2022-11-14T00:26:42;96665.34;;;4.89;83.92
68197;BME280;55019;49.382;11.358;2022-11-14T00:29:10;96675.06;;;4.95;84.01
68197;BME280;55019;49.382;11.358;2022-11-14T00:31:36;96668.88;;;4.97;83.48
68197;BME280;55019;49.382;11.358;2022-11-14T00:34:01;96675.06;;;4.95;83.77
68197;BME280;55019;49.382;11.358;2022-11-14T00:36:27;96668.84;;;4.88;84.13
68197;BME280;55019;49.382;11.358;2022-11-14T00:38:53;96671.88;;;4.82;84.25
68197;BME280;55019;49.382;11.358;2022-11-14T00:41:19;96665.03;;;4.82;84.23
68197;BME280;55019;49.382;11.358;2022-11-14T00:43:44;96672.44;;;4.85;83.97
68197;BME280;55019;49.382;11.358;2022-11-14T00:46:10;96665.59;;;4.86;84.32
68197;BME280;55019;49.382;11.358;2022-11-14T00:48:35;96657.72;;;4.78;84.50
68197;BME280;55019;49.382;11.358;2022-11-14T00:51:01;96664.78;;;4.85;84.14
68197;BME280;55019;49.382;11.358;2022-11-14T00:53:26;96657.19;;;4.84;84.46
68197;BME280;55019;49.382;11.358;2022-11-14T00:55:51;96643.78;;;4.91;83.85
68197;BME280;55019;49.382;11.358;2022-11-14T00:58:17;96651.34;;;4.93;84.26
68197;BME280;55019;49.382;11.358;2022-11-14T01:00:42;96650.53;;;4.92;84.11
68197;BME280;55019;49.382;11.358;2022-11-14T01:03:07;96644.88;;;4.89;83.99
68197;BME280;55019;49.382;11.358;2022-11-14T01:05:33;96631.31;;;5.07;83.74
68197;BME280;55019;49.382;11.358;2022-11-14T01:07:58;96634.19;;;5.14;82.83
68197;BME280;55019;49.382;11.358;2022-11-14T01:10:24;96631.88;;;5.11;83.08
68197;BME280;55019;49.382;11.358;2022-11-14T01:12:49;96625.81;;;5.12;83.31
68197;BME280;55019;49.382;11.358;2022-11-14T01:15:15;96611.81;;;5.16;83.08
68197;BME280;55019;49.382;11.358;2022-11-14T01:17:40;96616.16;;;5.25;82.45
68197;BME280;55019;49.382;11.358;2022-11-14T01:20:06;96626.97;;;5.28;82.40
68197;BME280;55019;49.382;11.358;2022-11-14T01:22:32;96619.22;;;5.49;81.10
68197;BME280;55019;49.382;11.358;2022-11-14T01:24:57;96625.13;;;5.40;81.43
68197;BME280;55019;49.382;11.358;2022-11-14T01:27:29;96614.06;;;5.39;81.60
68197;BME280;55019;49.382;11.358;2022-11-14T01:29:55;96606.81;;;5.54;81.08
68197;BME280;55019;49.382;11.358;2022-11-14T01:32:20;96608.56;;;5.44;81.07
68197;BME280;55019;49.382;11.358;2022-11-14T01:34:45;96607.19;;;5.49;82.07
68197;BME280;55019;49.382;11.358;2022-11-14T01:37:11;96609.34;;;5.44;81.50
68197;BME280;55019;49.382;11.358;2022-11-14T01:39:36;96602.63;;;5.53;81.12
68197;BME280;55019;49.382;11.358;2022-11-14T01:42:02;96596.28;;;5.47;80.86
68197;BME280;55019;49.382;11.358;2022-11-14T01:44:47;96611.13;;;5.53;81.31
68197;BME280;55019;49.382;11.358;2022-11-14T01:47:16;96597.53;;;5.62;80.41
68197;BME280;55019;49.382;11.358;2022-11-14T01:49:46;96590.91;;;5.60;80.60
68197;BME280;55019;49.382;11.358;2022-11-14T01:54:46;96590.25;;;5.67;80.34
68197;BME280;55019;49.382;11.358;2022-11-14T01:57:14;96604.28;;;5.63;80.63
68197;BME280;55019;49.382;11.358;2022-11-14T01:59:44;96608.84;;;5.60;80.60
68197;BME280;55019;49.382;11.358;2022-11-14T02:02:18;96608.81;;;5.89;78.95
68197;BME280;55019;49.382;11.358;2022-11-14T02:04:49;96592.03;;;5.85;79.29
68197;BME280;55019;49.382;11.358;2022-11-14T02:07:16;96586.91;;;5.76;79.22
68197;BME280;55019;49.382;11.358;2022-11-14T02:09:45;96594.03;;;5.72;80.19
68197;BME280;55019;49.382;11.358;2022-11-14T02:12:13;96585.28;;;5.75;79.87
68197;BME280;55019;49.382;11.358;2022-11-14T02:14:40;96599.00;;;5.64;80.55
68197;BME280;55019;49.382;11.358;2022-11-14T02:17:06;96593.88;;;5.64;80.35
68197;BME280;55019;49.382;11.358;2022-11-14T02:19:46;96600.22;;;5.61;80.73
68197;BME280;55019;49.382;11.358;2022-11-14T02:22:11;96609.91;;;5.48;81.42
68197;BME280;55019;49.382;11.358;2022-11-14T02:24:37;96606.53;;;5.47;81.23
68197;BME280;55019;49.382;11.358;2022-11-14T02:27:03;96608.56;;;5.44;81.92
68197;BME280;55019;49.382;11.358;2022-11-14T02:29:31;96602.88;;;5.40;81.28
68197;BME280;55019;49.382;11.358;2022-11-14T02:31:57;96609.97;;;5.27;81.96
68197;BME280;55019;49.382;11.358;2022-11-14T02:34:22;96613.03;;;5.12;83.30
68197;BME280;55019;49.382;11.358;2022-11-14T02:36:48;96607.38;;;5.18;83.43
68197;BME280;55019;49.382;11.358;2022-11-14T02:39:13;96602.63;;;5.04;83.44
68197;BME280;55019;49.382;11.358;2022-11-14T02:41:38;96607.81;;;4.93;84.13
68197;BME280;55019;49.382;11.358;2022-11-14T02:44:04;96609.28;;;4.86;84.45
68197;BME280;55019;49.382;11.358;2022-11-14T02:46:29;96607.44;;;4.77;84.59
68197;BME280;55019;49.382;11.358;2022-11-14T02:48:55;96612.22;;;4.81;85.04
68197;BME280;55019;49.382;11.358;2022-11-14T02:51:20;96624.84;;;4.73;85.35
68197;BME280;55019;49.382;11.358;2022-11-14T02:53:46;96623.84;;;4.65;85.02
68197;BME280;55019;49.382;11.358;2022-11-14T02:56:11;96625.03;;;4.61;85.96
68197;BME280;55019;49.382;11.358;2022-11-14T02:58:36;96623.75;;;4.55;85.85
68197;BME280;55019;49.382;11.358;2022-11-14T03:01:02;96626.47;;;4.54;86.47
68197;BME280;55019;49.382;11.358;2022-11-14T03:03:27;96625.59;;;4.44;86.67
68197;BME280;55019;49.382;11.358;2022-11-14T03:05:58;96609.56;;;4.42;87.04
68197;BME280;55019;49.382;11.358;2022-11-14T03:08:23;96624.09;;;4.41;87.66
68197;BME280;55019;49.382;11.358;2022-11-14T03:10:48;96622.38;;;4.31;87.47
68197;BME280;55019;49.382;11.358;2022-11-14T03:13:14;96622.63;;;4.28;87.23
68197;BME280;55019;49.382;11.358;2022-11-14T03:15:39;96616.63;;;4.18;87.84
68197;BME280;55019;49.382;11.358;2022-11-14T03:18:05;96618.66;;;4.15;88.78
68197;BME280;55019;49.382;11.358;2022-11-14T03:20:30;96617.28;;;4.00;87.97
68197;BME280;55019;49.382;11.358;2022-11-14T03:22:55;96615.66;;;4.10;88.48
68197;BME280;55019;49.382;11.358;2022-11-14T03:25:21;96622.50;;;4.09;88.30
68197;BME280;55019;49.382;11.358;2022-11-14T03:27:46;96612.53;;;4.06;88.84
68197;BME280;55019;49.382;11.358;2022-11-14T03:30:12;96596.50;;;4.04;88.77
68197;BME280;55019;49.382;11.358;2022-11-14T03:32:37;96599.53;;;3.98;88.89
68197;BME280;55019;49.382;11.358;2022-11-14T03:35:03;96607.56;;;3.94;88.68
68197;BME280;55019;49.382;11.358;2022-11-14T03:37:29;96607.66;;;4.03;89.55
68197;BME280;55019;49.382;11.358;2022-11-14T03:39:54;96610.31;;;4.02;88.78
68197;BME280;55019;49.382;11.358;2022-11-14T03:42:19;96604.06;;;3.95;89.06
68197;BME280;55019;49.382;11.358;2022-11-14T03:44:45;96615.38;;;3.92;89.55
68197;BME280;55019;49.382;11.358;2022-11-14T03:47:10;96613.16;;;3.88;89.68
68197;BME280;55019;49.382;11.358;2022-11-14T03:49:36;96608.88;;;3.88;89.74
68197;BME280;55019;49.382;11.358;2022-11-14T03:52:01;96614.53;;;3.92;89.92
68197;BME280;55019;49.382;11.358;2022-11-14T03:54:26;96623.53;;;3.86;89.77
68197;BME280;55019;49.382;11.358;2022-11-14T03:56:52;96613.31;;;3.86;89.99
68197;BME280;55019;49.382;11.358;2022-11-14T03:59:17;96600.97;;;3.91;90.32
68197;BME280;55019;49.382;11.358;2022-11-14T04:01:43;96600.78;;;4.04;89.59
68197;BME280;55019;49.382;11.358;2022-11-14T04:04:10;96601.16;;;3.99;89.04
68197;BME280;55019;49.382;11.358;2022-11-14T04:06:37;96605.44;;;3.99;89.33
68197;BME280;55019;49.382;11.358;2022-11-14T04:09:02;96606.53;;;3.96;90.00
68197;BME280;55019;49.382;11.358;2022-11-14T04:11:28;96619.34;;;4.17;89.24
68197;BME280;55019;49.382;11.358;2022-11-14T04:13:53;96612.84;;;4.13;89.21
68197;BME280;55019;49.382;11.358;2022-11-14T04:16:19;96610.91;;;4.05;89.51
68197;BME280;55019;49.382;11.358;2022-11-14T04:18:44;96603.03;;;3.97;89.15
68197;BME280;55019;49.382;11.358;2022-11-14T04:21:09;96587.56;;;3.99;90.01
68197;BME280;55019;49.382;11.358;2022-11-14T04:23:35;96581.91;;;3.95;89.99
68197;BME280;55019;49.382;11.358;2022-11-14T04:26:00;96583.94;;;4.01;90.22
68197;BME280;55019;49.382;11.358;2022-11-14T04:28:26;96581.66;;;4.19;89.56
68197;BME280;55019;49.382;11.358;2022-11-14T04:30:51;96587.31;;;4.22;89.85
68197;BME280;55019;49.382;11.358;2022-11-14T04:33:17;96583.16;;;4.21;89.21
68197;BME280;55019;49.382;11.358;2022-11-14T04:35:42;96583.41;;;4.18;89.65
68197;BME280;55019;49.382;11.358;2022-11-14T04:38:09;96589.16;;;4.11;90.12
68197;BME280;55019;49.382;11.358;2022-11-14T04:40:34;96589.28;;;4.29;89.73
68197;BME280;55019;49.382;11.358;2022-11-14T04:43:00;96600.78;;;4.24;89.39
68197;BME280;55019;49.382;11.358;2022-11-14T04:45:25;96600.25;;;4.21;89.58
68197;BME280;55019;49.382;11.358;2022-11-14T04:47:50;96598.44;;;4.12;90.07
68197;BME280;55019;49.382;11.358;2022-11-14T04:50:16;96599.16;;;4.03;90.42
68197;BME280;55019;49.382;11.358;2022-11-14T04:52:41;96596.25;;;4.07;89.86
68197;BME280;55019;49.382;11.358;2022-11-14T04:55:07;96592.31;;;4.03;90.85
68197;BME280;55019;49.382;11.358;2022-11-14T04:57:32;96593.19;;;4.13;90.40
68197;BME280;55019;49.382;11.358;2022-11-14T04:59:58;96586.88;;;3.97;90.35
68197;BME280;55019;49.382;11.358;2022-11-14T05:02:23;96582.50;;;3.88;90.63
68197;BME280;55019;49.382;11.358;2022-11-14T05:04:49;96585.19;;;3.86;90.70
68197;BME280;55019;49.382;11.358;2022-11-14T05:07:14;96585.28;;;3.85;91.46
68197;BME280;55019;49.382;11.358;2022-11-14T05:09:39;96587.00;;;3.95;91.49
68197;BME280;55019;49.382;11.358;2022-11-14T05:12:05;96589.38;;;3.87;91.23
68197;BME280;55019;49.382;11.358;2022-11-14T05:14:31;96593.78;;;3.85;91.13
68197;BME280;55019;49.382;11.358;2022-11-14T05:16:57;96594.94;;;3.81;91.13
68197;BME280;55019;49.382;11.358;2022-11-14T05:19:22;96589.81;;;3.92;91.26
68197;BME280;55019;49.382;11.358;2022-11-14T05:21:48;96589.81;;;3.92;91.30
68197;BME280;55019;49.382;11.358;2022-11-14T05:24:13;96583.56;;;3.85;91.02
68197;BME280;55019;49.382;11.358;2022-11-14T05:26:39;96585.38;;;3.94;90.88
68197;BME280;55019;49.382;11.358;2022-11-14T05:29:05;96584.25;;;3.87;90.94
68197;BME280;55019;49.382;11.358;2022-11-14T05:31:30;96592.59;;;3.89;90.64
68197;BME280;55019;49.382;11.358;2022-11-14T05:33:56;96579.50;;;3.83;91.01
68197;BME280;55019;49.382;11.358;2022-11-14T05:36:21;96569.59;;;3.89;90.75
68197;BME280;55019;49.382;11.358;2022-11-14T05:38:47;96584.94;;;3.89;90.24
68197;BME280;55019;49.382;11.358;2022-11-14T05:41:15;96584.94;;;3.89;90.66
68197;BME280;55019;49.382;11.358;2022-11-14T05:43:41;96597.91;;;3.97;90.24
68197;BME280;55019;49.382;11.358;2022-11-14T05:46:09;96598.47;;;4.01;90.16
68197;BME280;55019;49.382;11.358;2022-11-14T05:48:35;96604.69;;;3.87;90.42
68197;BME280;55019;49.382;11.358;2022-11-14T05:51:02;96607.69;;;3.92;90.76
68197;BME280;55019;49.382;11.358;2022-11-14T05:53:30;96618.56;;;4.05;90.25
68197;BME280;55019;49.382;11.358;2022-11-14T05:56:00;96612.03;;;4.12;89.86
68197;BME280;55019;49.382;11.358;2022-11-14T05:58:26;96613.72;;;4.22;88.38
68197;BME280;55019;49.382;11.358;2022-11-14T06:00:51;96608.88;;;4.20;88.55
68197;BME280;55019;49.382;11.358;2022-11-14T06:03:17;96599.06;;;4.24;88.11
68197;BME280;55019;49.382;11.358;2022-11-14T06:05:42;96601.69;;;4.14;88.39
68197;BME280;55019;49.382;11.358;2022-11-14T06:08:08;96622.59;;;4.19;88.60
68197;BME280;55019;49.382;11.358;2022-11-14T06:10:34;96622.94;;;4.14;88.56
68197;BME280;55019;49.382;11.358;2022-11-14T06:13:00;96613.72;;;4.22;88.53
68197;BME280;55019;49.382;11.358;2022-11-14T06:15:25;96611.34;;;4.10;89.07
68197;BME280;55019;49.382;11.358;2022-11-14T06:17:52;96603.81;;;3.98;89.14
68197;BME280;55019;49.382;11.358;2022-11-14T06:20:18;96615.63;;;3.89;89.64
68197;BME280;55019;49.382;11.358;2022-11-14T06:22:43;96619.09;;;3.88;89.92
68197;BME280;55019;49.382;11.358;2022-11-14T06:25:09;96615.38;;;3.92;89.96
68197;BME280;55019;49.382;11.358;2022-11-14T06:27:34;96601.03;;;4.01;89.49
68197;BME280;55019;49.382;11.358;2022-11-14T06:30:00;96595.50;;;4.16;89.68
68197;BME280;55019;49.382;11.358;2022-11-14T06:32:25;96608.72;;;4.21;89.45
68197;BME280;55019;49.382;11.358;2022-11-14T06:34:51;96621.75;;;4.18;89.71
68197;BME280;55019;49.382;11.358;2022-11-14T06:37:16;96616.88;;;4.15;89.62
68197;BME280;55019;49.382;11.358;2022-11-14T06:39:42;96624.81;;;4.12;89.44
68197;BME280;55019;49.382;11.358;2022-11-14T06:42:07;96636.47;;;4.05;89.86
68197;BME280;55019;49.382;11.358;2022-11-14T06:44:32;96634.53;;;4.18;88.96
68197;BME280;55019;49.382;11.358;2022-11-14T06:46:58;96642.22;;;4.18;89.43
68197;BME280;55019;49.382;11.358;2022-11-14T06:49:23;96646.63;;;4.16;89.66
68197;BME280;55019;49.382;11.358;2022-11-14T06:51:52;96640.19;;;4.32;89.02
68197;BME280;55019;49.382;11.358;2022-11-14T06:54:17;96647.28;;;4.29;89.46
68197;BME280;55019;49.382;11.358;2022-11-14T06:56:43;96645.63;;;4.39;88.69
68197;BME280;55019;49.382;11.358;2022-11-14T06:59:08;96650.16;;;4.35;89.29
68197;BME280;55019;49.382;11.358;2022-11-14T07:01:34;96651.66;;;4.38;89.09
68197;BME280;55019;49.382;11.358;2022-11-14T07:03:59;96638.13;;;4.47;88.81
68197;BME280;55019;49.382;11.358;2022-11-14T07:06:27;96639.50;;;4.51;88.64
68197;BME280;55019;49.382;11.358;2022-11-14T07:08:55;96634.56;;;4.59;88.51
68197;BME280;55019;49.382;11.358;2022-11-14T07:11:25;96638.75;;;4.60;88.56
68197;BME280;55019;49.382;11.358;2022-11-14T07:14:02;96632.34;;;4.65;88.21
68197;BME280;55019;49.382;11.358;2022-11-14T07:16:32;96646.53;;;4.58;88.67
68197;BME280;55019;49.382;11.358;2022-11-14T07:19:00;96646.19;;;4.63;88.56
68197;BME280;55019;49.382;11.358;2022-11-14T07:21:27;96664.59;;;4.77;87.89
68197;BME280;55019;49.382;11.358;2022-11-14T07:23:54;96677.50;;;4.96;87.17
68197;BME280;55019;49.382;11.358;2022-11-14T07:26:20;96683.59;;;5.25;85.76
68197;BME280;55019;49.382;11.358;2022-11-14T07:28:45;96696.63;;;5.52;84.37
68197;BME280;55019;49.382;11.358;2022-11-14T07:31:13;96691.16;;;5.66;83.64
68197;BME280;55019;49.382;11.358;2022-11-14T07:33:40;96682.31;;;5.79;83.16
68197;BME280;55019;49.382;11.358;2022-11-14T07:36:06;96671.44;;;5.96;82.76
68197;BME280;55019;49.382;11.358;2022-11-14T07:38:33;96659.84;;;6.21;80.74
68197;BME280;55019;49.382;11.358;2022-11-14T07:41:21;96651.72;;;6.54;79.71
68197;BME280;55019;49.382;11.358;2022-11-14T07:43:45;96653.09;;;7.13;76.78
68197;BME280;55019;49.382;11.358;2022-11-14T07:46:13;96649.44;;;7.52;75.68
68197;BME280;55019;49.382;11.358;2022-11-14T07:48:39;96655.69;;;8.21;71.90
68197;BME280;55019;49.382;11.358;2022-11-14T07:51:06;96654.16;;;9.13;68.91
68197;BME280;55019;49.382;11.358;2022-11-14T07:53:33;96661.84;;;9.64;65.62
68197;BME280;55019;49.382;11.358;2022-11-14T07:56:07;96656.72;;;9.80;65.37
68197;BME280;55019;49.382;11.358;2022-11-14T07:58:38;96646.75;;;9.44;65.70
68197;BME280;55019;49.382;11.358;2022-11-14T08:01:05;96648.44;;;8.59;68.89
68197;BME280;55019;49.382;11.358;2022-11-14T08:03:31;96659.03;;;8.73;69.38
68197;BME280;55019;49.382;11.358;2022-11-14T08:06:06;96644.63;;;10.22;63.72
68197;BME280;55019;49.382;11.358;2022-11-14T08:08:32;96652.34;;;10.22;63.56
68197;BME280;55019;49.382;11.358;2022-11-14T08:10:58;96636.56;;;11.05;61.16
68197;BME280;55019;49.382;11.358;2022-11-14T08:13:24;96636.44;;;12.66;55.25
68197;BME280;55019;49.382;11.358;2022-11-14T08:15:50;96626.03;;;13.11;52.67
68197;BME280;55019;49.382;11.358;2022-11-14T08:18:15;96620.25;;;14.38;50.36
68197;BME280;55019;49.382;11.358;2022-11-14T08:20:41;96610.03;;;15.60;46.39
68197;BME280;55019;49.382;11.358;2022-11-14T08:23:06;96620.41;;;16.07;45.14
68197;BME280;55019;49.382;11.358;2022-11-14T08:25:32;96619.19;;;16.63;44.02
68197;BME280;55019;49.382;11.358;2022-11-14T08:27:58;96622.56;;;16.57;42.84
68197;BME280;55019;49.382;11.358;2022-11-14T08:30:24;96637.72;;;15.74;44.88
68197;BME280;55019;49.382;11.358;2022-11-14T08:32:49;96613.06;;;15.70;44.79
68197;BME280;55019;49.382;11.358;2022-11-14T08:35:15;96620.66;;;16.12;43.20
68197;BME280;55019;49.382;11.358;2022-11-14T08:37:40;96610.34;;;16.83;41.96
68197;BME280;55019;49.382;11.358;2022-11-14T08:40:07;96605.47;;;18.52;39.14
68197;BME280;55019;49.382;11.358;2022-11-14T08:42:32;96613.59;;;18.44;39.30
68197;BME280;55019;49.382;11.358;2022-11-14T08:44:58;96599.66;;;19.05;37.41
68197;BME280;55019;49.382;11.358;2022-11-14T08:47:23;96597.69;;;19.25;36.83
68197;BME280;55019;49.382;11.358;2022-11-14T08:49:49;96608.66;;;18.23;37.92
68197;BME280;55019;49.382;11.358;2022-11-14T08:52:14;96596.94;;;17.95;39.31
68197;BME280;55019;49.382;11.358;2022-11-14T08:54:40;96616.03;;;18.39;38.35
68197;BME280;55019;49.382;11.358;2022-11-14T08:57:06;96602.53;;;17.98;38.74
68197;BME280;55019;49.382;11.358;2022-11-14T08:59:32;96604.13;;;17.42;39.97
68197;BME280;55019;49.382;11.358;2022-11-14T09:01:57;96616.66;;;17.84;39.56
68197;BME280;55019;49.382;11.358;2022-11-14T09:04:23;96619.31;;;18.22;37.84
68197;BME280;55019;49.382;11.358;2022-11-14T09:06:48;96614.28;;;18.64;37.26
68197;BME280;55019;49.382;11.358;2022-11-14T09:09:14;96625.34;;;18.22;38.84
68197;BME280;55019;49.382;11.358;2022-11-14T09:11:39;96614.34;;;19.06;37.45
68197;BME280;55019;49.382;11.358;2022-11-14T09:14:05;96617.44;;;19.46;36.89
68197;BME280;55019;49.382;11.358;2022-11-14T09:16:30;96612.13;;;20.53;35.05
68197;BME280;55019;49.382;11.358;2022-11-14T09:18:57;96611.91;;;20.26;34.05
68197;BME280;55019;49.382;11.358;2022-11-14T09:21:23;96614.13;;;21.33;33.24
68197;BME280;55019;49.382;11.358;2022-11-14T09:23:48;96611.66;;;20.45;35.18
68197;BME280;55019;49.382;11.358;2022-11-14T09:26:14;96610.78;;;21.49;32.99
68197;BME280;55019;49.382;11.358;2022-11-14T09:28:39;96621.31;;;22.62;31.28
68197;BME280;55019;49.382;11.358;2022-11-14T09:31:07;96618.53;;;22.85;29.99
68197;BME280;55019;49.382;11.358;2022-11-14T09:33:34;96607.13;;;22.80;30.50
68197;BME280;55019;49.382;11.358;2022-11-14T09:36:02;96605.94;;;23.04;30.06
68197;BME280;55019;49.382;11.358;2022-11-14T09:38:31;96619.81;;;24.24;28.36
68197;BME280;55019;49.382;11.358;2022-11-14T09:41:22;96616.91;;;23.66;29.02
68197;BME280;55019;49.382;11.358;2022-11-14T09:46:43;96633.66;;;23.39;29.08
68197;BME280;55019;49.382;11.358;2022-11-14T09:49:34;96641.97;;;23.15;30.17
68197;BME280;55019;49.382;11.358;2022-11-14T09:52:34;96643.25;;;22.68;29.72
68197;BME280;55019;49.382;11.358;2022-11-14T09:55:21;96648.91;;;22.60;30.97
68197;BME280;55019;49.382;11.358;2022-11-14T09:57:47;96659.47;;;23.86;27.87
68197;BME280;55019;49.382;11.358;2022-11-14T10:00:24;96661.66;;;22.96;29.41
68197;BME280;55019;49.382;11.358;2022-11-14T10:10:49;96659.53;;;24.34;28.66
68197;BME280;55019;49.382;11.358;2022-11-14T10:13:52;96663.94;;;24.07;28.85
68197;BME280;55019;49.382;11.358;2022-11-14T10:24:46;96668.06;;;23.98;28.01
68197;BME280;55019;49.382;11.358;2022-11-14T10:27:18;96667.72;;;23.24;30.23
68197;BME280;55019;49.382;11.358;2022-11-14T10:30:09;96665.97;;;24.00;28.31
68197;BME280;55019;49.382;11.358;2022-11-14T10:36:02;96676.56;;;24.65;27.15
68197;BME280;55019;49.382;11.358;2022-11-14T10:38:43;96676.94;;;23.76;28.14
68197;BME280;55019;49.382;11.358;2022-11-14T10:41:10;96668.13;;;23.49;29.00
68197;BME280;55019;49.382;11.358;2022-11-14T10:43:41;96674.47;;;24.45;28.18
68197;BME280;55019;49.382;11.358;2022-11-14T10:46:21;96657.59;;;25.25;25.63
68197;BME280;55019;49.382;11.358;2022-11-14T10:48:49;96652.97;;;24.58;28.75
68197;BME280;55019;49.382;11.358;2022-11-14T10:51:33;96639.03;;;25.52;26.67
68197;BME280;55019;49.382;11.358;2022-11-14T10:54:05;96641.94;;;26.48;25.62
68197;BME280;55019;49.382;11.358;2022-11-14T10:56:31;96641.03;;;25.76;25.97
68197;BME280;55019;49.382;11.358;2022-11-14T10:58:57;96646.78;;;25.63;26.11
68197;BME280;55019;49.382;11.358;2022-11-14T11:01:52;96639.88;;;26.60;24.42
68197;BME280;55019;49.382;11.358;2022-11-14T11:06:54;96644.66;;;28.03;23.59
68197;BME280;55019;49.382;11.358;2022-11-14T11:09:23;96643.41;;;27.60;23.20
68197;BME280;55019;49.382;11.358;2022-11-14T11:12:13;96651.09;;;29.42;21.52
68197;BME280;55019;49.382;11.358;2022-11-14T11:14:39;96650.28;;;27.91;23.46
68197;BME280;55019;49.382;11.358;2022-11-14T11:19:38;96633.69;;;28.24;21.97
68197;BME280;55019;49.382;11.358;2022-11-14T11:22:08;96645.00;;;27.26;23.08
68197;BME280;55019;49.382;11.358;2022-11-14T11:24:47;96634.16;;;27.13;23.44
68197;BME280;55019;49.382;11.358;2022-11-14T11:27:25;96632.28;;;27.43;23.23
68197;BME280;55019;49.382;11.358;2022-11-14T11:32:39;96631.44;;;28.56;22.87
68197;BME280;55019;49.382;11.358;2022-11-14T11:35:10;96632.78;;;27.00;24.99
68197;BME280;55019;49.382;11.358;2022-11-14T11:37:47;96629.84;;;28.55;22.63
68197;BME280;55019;49.382;11.358;2022-11-14T11:40:20;96627.38;;;31.04;20.60
68197;BME280;55019;49.382;11.358;2022-11-14T11:42:59;96628.50;;;29.06;22.63
68197;BME280;55019;49.382;11.358;2022-11-14T11:45:28;96631.16;;;29.39;21.22
68197;BME280;55019;49.382;11.358;2022-11-14T11:48:02;96624.28;;;29.00;21.41
68197;BME280;55019;49.382;11.358;2022-11-14T11:50:32;96633.44;;;28.20;22.13
68197;BME280;55019;49.382;11.358;2022-11-14T11:53:23;96639.00;;;28.29;22.56
68197;BME280;55019;49.382;11.358;2022-11-14T11:56:15;96639.31;;;28.17;21.93
68197;BME280;55019;49.382;11.358;2022-11-14T11:58:48;96641.94;;;28.76;21.36
68197;BME280;55019;49.382;11.358;2022-11-14T12:01:15;96650.84;;;27.48;22.63
68197;BME280;55019;49.382;11.358;2022-11-14T12:03:49;96647.59;;;27.96;22.56
68197;BME280;55019;49.382;11.358;2022-11-14T12:06:18;96647.50;;;28.89;21.83
68197;BME280;55019;49.382;11.358;2022-11-14T12:08:57;96651.75;;;28.32;21.42
68197;BME280;55019;49.382;11.358;2022-11-14T12:11:27;96659.13;;;26.41;24.52
68197;BME280;55019;49.382;11.358;2022-11-14T12:27:42;96640.78;;;25.41;24.55
68197;BME280;55019;49.382;11.358;2022-11-14T12:30:18;96650.25;;;25.06;25.35
68197;BME280;55019;49.382;11.358;2022-11-14T12:32:50;96657.97;;;25.75;24.97
68197;BME280;55019;49.382;11.358;2022-11-14T12:35:29;96660.72;;;23.02;28.08
68197;BME280;55019;49.382;11.358;2022-11-14T12:37:56;96663.59;;;22.44;29.37
68197;BME280;55019;49.382;11.358;2022-11-14T12:40:35;96659.97;;;22.45;29.66
68197;BME280;55019;49.382;11.358;2022-11-14T12:43:03;96659.94;;;23.18;28.67
68197;BME280;55019;49.382;11.358;2022-11-14T12:48:19;96666.47;;;22.99;29.45
68197;BME280;55019;49.382;11.358;2022-11-14T12:50:45;96675.53;;;22.75;29.90
68197;BME280;55019;49.382;11.358;2022-11-14T13:04:51;96661.44;;;21.33;32.23
68197;BME280;55019;49.382;11.358;2022-11-14T13:07:50;96668.09;;;20.18;34.58
68197;BME280;55019;49.382;11.358;2022-11-14T13:10:51;96669.47;;;19.67;36.05
68197;BME280;55019;49.382;11.358;2022-11-14T13:13:17;96666.13;;;20.61;34.82
68197;BME280;55019;49.382;11.358;2022-11-14T13:16:01;96649.19;;;21.27;33.70
68197;BME280;55019;49.382;11.358;2022-11-14T13:19:02;96662.63;;;20.38;34.73
68197;BME280;55019;49.382;11.358;2022-11-14T13:27:26;96643.72;;;17.14;41.69
68197;BME280;55019;49.382;11.358;2022-11-14T13:29:53;96658.66;;;16.34;44.81
68197;BME280;55019;49.382;11.358;2022-11-14T13:32:54;96646.75;;;15.38;47.50
68197;BME280;55019;49.382;11.358;2022-11-14T13:35:55;96639.63;;;15.04;48.21
68197;BME280;55019;49.382;11.358;2022-11-14T13:38:49;96643.97;;;14.14;52.17
68197;BME280;55019;49.382;11.358;2022-11-14T13:51:45;96630.09;;;13.57;53.67
68197;BME280;55019;49.382;11.358;2022-11-14T13:54:12;96623.00;;;13.36;54.01
68197;BME280;55019;49.382;11.358;2022-11-14T14:05:25;96627.38;;;13.07;55.98
68197;BME280;55019;49.382;11.358;2022-11-14T14:19:06;96630.44;;;12.66;57.42
68197;BME280;55019;49.382;11.358;2022-11-14T14:22:32;96631.13;;;12.37;58.70
68197;BME280;55019;49.382;11.358;2022-11-14T14:27:42;96624.91;;;12.01;59.49
68197;BME280;55019;49.382;11.358;2022-11-14T14:30:15;96622.38;;;11.85;60.61
68197;BME280;55019;49.382;11.358;2022-11-14T14:32:43;96620.09;;;11.90;60.11
68197;BME280;55019;49.382;11.358;2022-11-14T14:35:28;96616.63;;;11.75;60.73
68197;BME280;55019;49.382;11.358;2022-11-14T14:37:55;96610.56;;;11.60;62.08
68197;BME280;55019;49.382;11.358;2022-11-14T14:40:30;96617.97;;;11.47;62.42
68197;BME280;55019;49.382;11.358;2022-11-14T14:42:59;96606.06;;;11.39;62.96
68197;BME280;55019;49.382;11.358;2022-11-14T14:45:26;96605.44;;;11.29;62.82